Meteo Knjaževac - METAR stanice u blizini


METAR stanice u blizini

 

LYBE - Beograd / Surčin, Srbija
Ažurirano: 17/08/2018 04:30
Vedro
Vedro
 Pravac vetra JZ
Vetar: JZ 9 km/h
Temperatura: 19°C
Tačka rose: 18°C
Vlažnost: 94%
Pritisak: 1015 hPa
Pregled: Vedro
Vidljivost: greater than 10 km
2018/08/17 02:30 LYBE 170230Z 23005KT CAVOK 19/18 Q1015 NOSIG
LYBT - Beograd / Batajnica, Srbija
Ažurirano: 17/08/2018 04:30
Shallow fog, Delimično oblačno
Shallow fog, Delimično oblačno
 Pravac vetra JI
Vetar: JI 2 km/h
Temperatura: 17°C
Tačka rose: 16°C
Vlažnost: 94%
Pritisak: 1015 hPa
Pregled: Shallow Fog
Oblaci: Partly Cloudy
Vidljivost: 6 km
2018/08/17 02:30 LYBT 170230Z 13001KT 6000 MIFG NSC 17/16 Q1015 NOSIG
LYVR - Vršac, Srbija
Ažurirano: 17/08/2018 04:00
Vedro
Vedro
 Pravac vetra varies
Vetar: varies 2 km/h
Temperatura: 15°C
Tačka rose: 15°C
Vlažnost: 100%
Pritisak: 1015 hPa
Pregled: Vedro
Vidljivost: greater than 10 km
2018/08/17 02:00 LYVR 170200Z VRB01KT CAVOK 15/15 Q1015 NOSIG
 
LYKV - Lađevci, Srbija
Ažurirano: 17/08/2018 04:30
Vedro
Vedro
 Pravac vetra JI
Vetar: JI 4 km/h
Temperatura: 16°C
Tačka rose: 16°C
Vlažnost: 100%
Pritisak: 1016 hPa
Pregled: Vedro
Vidljivost: greater than 10 km
2018/08/17 02:30 LYKV 170230Z 14002KT CAVOK 16/16 Q1016 NOSIG
LYNI - Niš, Srbija
Ažurirano: 17/08/2018 04:30
Vedro
Vedro
 Pravac vetra calm
Vetar: Tišina
Temperatura: 16°C
Tačka rose: 13°C
Vlažnost: 83%
Pritisak: 1015 hPa
Pregled: Vedro
Vidljivost: greater than 10 km
2018/08/17 02:30 LYNI 170230Z 00000KT CAVOK 16/13 Q1015 NOSIG
BKPR - Priština, Srbija
Ažurirano: 17/08/2018 05:00
Vedro
Vedro
 Pravac vetra calm
Vetar: Tišina
Temperatura: 15°C
Tačka rose: 12°C
Vlažnost: 82%
Pritisak: 1017 hPa
Pregled: Vedro
Vidljivost: greater than 10 km
2018/08/17 03:00 BKPR 170300Z 00000KT CAVOK 15/12 Q1017 TEMPO 5000 BR
 
LHPP - Pecs / Pogany, Hungary
Ažurirano: 16/08/2018 18:45
NOT Current
Vedro
Vedro
 Pravac vetra SSI
Vetar: SSI 6 km/h
Temperatura: 25°C
Tačka rose: 16°C
Vlažnost: 57%
Pritisak: 1016 hPa
Pregled: Vedro
Vidljivost: greater than 10 km
2018/08/16 16:45 LHPP 161645Z 03003KT CAVOK 25/16 Q1016
LHUD - Szeged, Hungary
Ažurirano: 17/08/2018 03:45
NOT Current
Vedro
Vedro
 Pravac vetra S
Vetar: S 6 km/h
Temperatura: 19°C
Tačka rose: 17°C
Vlažnost: 88%
Pritisak: 1016 hPa
Pregled: Vedro
Vidljivost: greater than 10 km
2018/08/17 01:45 LHUD 170145Z 01003KT CAVOK 19/17 Q1016
LRTR - Timisoara, Romania
Ažurirano: 17/08/2018 04:30
Vedro
Vedro
 Pravac vetra I
Vetar: I 9 km/h
Temperatura: 18°C
Tačka rose: 17°C
Vlažnost: 94%
Pritisak: 1015 hPa
Pregled: Vedro
Vidljivost: greater than 10 km
2018/08/17 02:30 LRTR 170230Z 08005KT CAVOK 18/17 Q1015 NOSIG
 
LRCV - Craiova, Romania
Ažurirano: 17/08/2018 04:30
Vedro
Vedro
 Pravac vetra SZ
Vetar: SZ 7 km/h
Temperatura: 17°C
Tačka rose: 14°C
Vlažnost: 83%
Pritisak: 1014 hPa
Oblaci: Vedro
Vidljivost: 10 km
2018/08/17 02:30 LRCV 170230Z AUTO 32004KT 280V020 9999 NCD 17/14 Q1014
LBSF - Sofia, Bulgaria
Ažurirano: 17/08/2018 04:30
Vedro
Vedro
 Pravac vetra calm
Vetar: Tišina
Temperatura: 18°C
Tačka rose: 14°C
Vlažnost: 78%
Pritisak: 1016 hPa
Pregled: Vedro
Vidljivost: greater than 10 km
2018/08/17 02:30 LBSF 170230Z 00000KT CAVOK 18/14 Q1016 NOSIG
LWSK - Skoplje, Makedonija
Ažurirano: 17/08/2018 05:00
Few Clouds
Few Clouds
 Pravac vetra calm
Vetar: Tišina
Temperatura: 16°C
Tačka rose: 15°C
Vlažnost: 94%
Pritisak: 1015 hPa
Oblaci: Few Clouds
Vidljivost: 10 km
Cloud details: Few Clouds 1829 m
2018/08/17 03:00 LWSK 170300Z 00000KT 9999 FEW060 16/15 Q1015 NOSIG
 
LYPG - Podgorica, Crna Gora
Ažurirano: 17/08/2018 04:30
Vedro
Vedro
 Pravac vetra S
Vetar: S 6 km/h
Temperatura: 22°C
Tačka rose: 17°C
Vlažnost: 73%
Pritisak: 1012 hPa
Pregled: Vedro
Vidljivost: greater than 10 km
2018/08/17 02:30 LYPG 170230Z 35003KT CAVOK 22/17 Q1012 NOSIG
LQSA - Sarajevo, Bosna i Hercegovina
Ažurirano: 17/08/2018 04:00
Partly Cloudy
Partly Cloudy
 Pravac vetra calm
Vetar: Tišina
Temperatura: 17°C
Tačka rose: 17°C
Vlažnost: 100%
Pritisak: 1018 hPa
Oblaci: Partly Cloudy
Vidljivost: 6 km
Cloud details: Few Clouds 122 m
Partly Cloudy 305 m
2018/08/17 02:00 LQSA 170200Z 00000KT 6000 FEW004 SCT010 17/17 Q1018
LDOS - Osijek, Hrvatksa
Ažurirano: 17/08/2018 04:30
Vedro
Vedro
 Pravac vetra SZ
Vetar: SZ 9 km/h
Temperatura: 16°C
Tačka rose: 15°C
Vlažnost: 94%
Pritisak: 1015 hPa
Pregled: Vedro
Vidljivost: greater than 10 km
2018/08/17 02:30 LDOS 170230Z 31005KT 300V040 CAVOK 16/15 Q1015